sensor_id;sensor_type;location;lat;lon;timestamp;temperature;humidity
71627;DHT22;59475;52.464;13.590;2022-10-14T00:02:10;6.16;92.79
71627;DHT22;59475;52.464;13.590;2022-10-14T00:04:35;6.13;92.87
71627;DHT22;59475;52.464;13.590;2022-10-14T00:07:00;6.13;93.09
71627;DHT22;59475;52.464;13.590;2022-10-14T00:09:26;6.06;93.14
71627;DHT22;59475;52.464;13.590;2022-10-14T00:11:51;6.06;93.35
71627;DHT22;59475;52.464;13.590;2022-10-14T00:14:19;5.98;93.38
71627;DHT22;59475;52.464;13.590;2022-10-14T00:16:46;6.00;93.39
71627;DHT22;59475;52.464;13.590;2022-10-14T00:19:13;5.95;93.50
71627;DHT22;59475;52.464;13.590;2022-10-14T00:21:41;5.92;93.63
71627;DHT22;59475;52.464;13.590;2022-10-14T00:24:07;5.89;93.54
71627;DHT22;59475;52.464;13.590;2022-10-14T00:26:34;5.86;93.50
71627;DHT22;59475;52.464;13.590;2022-10-14T00:29:01;5.89;93.44
71627;DHT22;59475;52.464;13.590;2022-10-14T00:31:27;5.88;93.11
71627;DHT22;59475;52.464;13.590;2022-10-14T00:33:53;5.88;92.87
71627;DHT22;59475;52.464;13.590;2022-10-14T00:36:20;5.89;92.74
71627;DHT22;59475;52.464;13.590;2022-10-14T00:38:46;5.89;92.58
71627;DHT22;59475;52.464;13.590;2022-10-14T00:43:55;5.85;92.45
71627;DHT22;59475;52.464;13.590;2022-10-14T00:46:22;5.76;92.75
71627;DHT22;59475;52.464;13.590;2022-10-14T00:48:48;5.75;93.26
71627;DHT22;59475;52.464;13.590;2022-10-14T00:51:13;5.72;93.21
71627;DHT22;59475;52.464;13.590;2022-10-14T00:53:41;5.68;93.25
71627;DHT22;59475;52.464;13.590;2022-10-14T00:56:08;5.71;93.00
71627;DHT22;59475;52.464;13.590;2022-10-14T00:58:33;5.65;92.67
71627;DHT22;59475;52.464;13.590;2022-10-14T01:00:59;5.61;92.62
71627;DHT22;59475;52.464;13.590;2022-10-14T01:03:24;5.66;92.68
71627;DHT22;59475;52.464;13.590;2022-10-14T01:06:08;5.65;92.64
71627;DHT22;59475;52.464;13.590;2022-10-14T01:08:51;5.61;93.05
71627;DHT22;59475;52.464;13.590;2022-10-14T01:11:35;5.58;93.15
71627;DHT22;59475;52.464;13.590;2022-10-14T01:14:30;5.52;93.05
71627;DHT22;59475;52.464;13.590;2022-10-14T01:22:18;5.44;93.35
71627;DHT22;59475;52.464;13.590;2022-10-14T01:30:12;5.38;93.61
71627;DHT22;59475;52.464;13.590;2022-10-14T01:38:07;5.27;93.74
71627;DHT22;59475;52.464;13.590;2022-10-14T01:43:18;5.22;93.68
71627;DHT22;59475;52.464;13.590;2022-10-14T01:45:46;5.23;93.55
71627;DHT22;59475;52.464;13.590;2022-10-14T01:48:15;5.28;93.24
71627;DHT22;59475;52.464;13.590;2022-10-14T01:50:44;5.27;92.97
71627;DHT22;59475;52.464;13.590;2022-10-14T01:53:17;5.27;93.13
71627;DHT22;59475;52.464;13.590;2022-10-14T01:55:46;5.22;93.02
71627;DHT22;59475;52.464;13.590;2022-10-14T01:58:13;5.20;93.22
71627;DHT22;59475;52.464;13.590;2022-10-14T02:00:39;5.20;93.90
71627;DHT22;59475;52.464;13.590;2022-10-14T02:03:04;5.17;94.08
71627;DHT22;59475;52.464;13.590;2022-10-14T02:05:39;5.12;94.06
71627;DHT22;59475;52.464;13.590;2022-10-14T02:08:11;5.10;94.06
71627;DHT22;59475;52.464;13.590;2022-10-14T02:10:53;5.12;94.08
71627;DHT22;59475;52.464;13.590;2022-10-14T02:13:26;5.06;93.61
71627;DHT22;59475;52.464;13.590;2022-10-14T02:19:23;5.06;94.00
71627;DHT22;59475;52.464;13.590;2022-10-14T02:22:00;5.03;94.20
71627;DHT22;59475;52.464;13.590;2022-10-14T02:24:30;4.99;94.28
71627;DHT22;59475;52.464;13.590;2022-10-14T02:26:59;4.90;94.50
71627;DHT22;59475;52.464;13.590;2022-10-14T02:29:28;4.93;94.34
71627;DHT22;59475;52.464;13.590;2022-10-14T02:31:55;4.90;94.17
71627;DHT22;59475;52.464;13.590;2022-10-14T02:34:23;4.93;94.08
71627;DHT22;59475;52.464;13.590;2022-10-14T02:36:51;4.95;93.81
71627;DHT22;59475;52.464;13.590;2022-10-14T02:39:20;4.96;93.54
71627;DHT22;59475;52.464;13.590;2022-10-14T02:41:49;4.93;93.46
71627;DHT22;59475;52.464;13.590;2022-10-14T02:44:14;4.92;93.31
71627;DHT22;59475;52.464;13.590;2022-10-14T02:46:41;4.90;93.99
71627;DHT22;59475;52.464;13.590;2022-10-14T02:49:06;4.85;94.00
71627;DHT22;59475;52.464;13.590;2022-10-14T02:51:32;4.82;93.90
71627;DHT22;59475;52.464;13.590;2022-10-14T02:53:57;4.82;94.00
71627;DHT22;59475;52.464;13.590;2022-10-14T02:56:23;4.80;94.33
71627;DHT22;59475;52.464;13.590;2022-10-14T02:58:48;4.80;94.42
71627;DHT22;59475;52.464;13.590;2022-10-14T03:01:13;4.85;94.50
71627;DHT22;59475;52.464;13.590;2022-10-14T03:03:39;4.95;94.60
71627;DHT22;59475;52.464;13.590;2022-10-14T03:06:04;4.99;94.69
71627;DHT22;59475;52.464;13.590;2022-10-14T03:08:30;5.03;94.70
71627;DHT22;59475;52.464;13.590;2022-10-14T03:10:55;5.12;94.79
71627;DHT22;59475;52.464;13.590;2022-10-14T03:13:21;5.19;94.89
71627;DHT22;59475;52.464;13.590;2022-10-14T03:15:47;5.27;94.84
71627;DHT22;59475;52.464;13.590;2022-10-14T03:18:13;5.33;94.69
71627;DHT22;59475;52.464;13.590;2022-10-14T03:20:39;5.35;94.67
71627;DHT22;59475;52.464;13.590;2022-10-14T03:23:04;5.42;94.77
71627;DHT22;59475;52.464;13.590;2022-10-14T03:25:29;5.48;94.78
71627;DHT22;59475;52.464;13.590;2022-10-14T03:27:55;5.55;94.81
71627;DHT22;59475;52.464;13.590;2022-10-14T03:30:21;5.62;94.88
71627;DHT22;59475;52.464;13.590;2022-10-14T03:32:46;5.66;94.89
71627;DHT22;59475;52.464;13.590;2022-10-14T03:35:11;5.72;94.96
71627;DHT22;59475;52.464;13.590;2022-10-14T03:37:37;5.75;95.08
71627;DHT22;59475;52.464;13.590;2022-10-14T03:40:02;5.79;95.10
71627;DHT22;59475;52.464;13.590;2022-10-14T03:42:28;5.85;95.11
71627;DHT22;59475;52.464;13.590;2022-10-14T03:44:53;5.92;95.33
71627;DHT22;59475;52.464;13.590;2022-10-14T03:47:18;6.02;95.21
71627;DHT22;59475;52.464;13.590;2022-10-14T03:49:44;6.11;95.09
71627;DHT22;59475;52.464;13.590;2022-10-14T03:52:09;6.13;95.05
71627;DHT22;59475;52.464;13.590;2022-10-14T03:54:34;6.17;95.00
71627;DHT22;59475;52.464;13.590;2022-10-14T03:57:00;6.21;94.94
71627;DHT22;59475;52.464;13.590;2022-10-14T03:59:25;6.27;94.94
71627;DHT22;59475;52.464;13.590;2022-10-14T04:01:50;6.34;94.88
71627;DHT22;59475;52.464;13.590;2022-10-14T04:04:16;6.37;94.82
71627;DHT22;59475;52.464;13.590;2022-10-14T04:06:41;6.37;94.82
71627;DHT22;59475;52.464;13.590;2022-10-14T04:09:06;6.34;94.78
71627;DHT22;59475;52.464;13.590;2022-10-14T04:11:32;6.33;94.72
71627;DHT22;59475;52.464;13.590;2022-10-14T04:13:58;6.30;94.75
71627;DHT22;59475;52.464;13.590;2022-10-14T04:16:24;6.23;94.92
71627;DHT22;59475;52.464;13.590;2022-10-14T04:18:49;6.21;95.03
71627;DHT22;59475;52.464;13.590;2022-10-14T04:21:14;6.23;95.25
71627;DHT22;59475;52.464;13.590;2022-10-14T04:23:40;6.26;95.32
71627;DHT22;59475;52.464;13.590;2022-10-14T04:26:07;6.23;95.28
71627;DHT22;59475;52.464;13.590;2022-10-14T04:28:34;6.21;95.18
71627;DHT22;59475;52.464;13.590;2022-10-14T04:30:59;6.23;95.05
71627;DHT22;59475;52.464;13.590;2022-10-14T04:33:25;6.18;94.81
71627;DHT22;59475;52.464;13.590;2022-10-14T04:35:59;6.16;94.64
71627;DHT22;59475;52.464;13.590;2022-10-14T04:38:26;6.14;94.59
71627;DHT22;59475;52.464;13.590;2022-10-14T04:40:51;6.09;94.69
71627;DHT22;59475;52.464;13.590;2022-10-14T04:43:16;6.10;94.64
71627;DHT22;59475;52.464;13.590;2022-10-14T04:45:42;6.06;94.76
71627;DHT22;59475;52.464;13.590;2022-10-14T04:48:07;6.05;94.92
71627;DHT22;59475;52.464;13.590;2022-10-14T04:50:32;6.05;94.95
71627;DHT22;59475;52.464;13.590;2022-10-14T04:52:58;6.02;95.14
71627;DHT22;59475;52.464;13.590;2022-10-14T04:55:23;6.03;95.17
71627;DHT22;59475;52.464;13.590;2022-10-14T04:57:48;6.03;95.20
71627;DHT22;59475;52.464;13.590;2022-10-14T05:00:14;6.03;95.26
71627;DHT22;59475;52.464;13.590;2022-10-14T05:02:40;6.03;95.28
71627;DHT22;59475;52.464;13.590;2022-10-14T05:05:07;6.03;95.20
71627;DHT22;59475;52.464;13.590;2022-10-14T05:07:33;6.07;95.10
71627;DHT22;59475;52.464;13.590;2022-10-14T05:09:58;6.14;95.08
71627;DHT22;59475;52.464;13.590;2022-10-14T05:12:25;6.17;94.93
71627;DHT22;59475;52.464;13.590;2022-10-14T05:14:50;6.18;94.98
71627;DHT22;59475;52.464;13.590;2022-10-14T05:17:15;6.18;95.16
71627;DHT22;59475;52.464;13.590;2022-10-14T05:19:41;6.20;95.04
71627;DHT22;59475;52.464;13.590;2022-10-14T05:22:06;6.24;95.23
71627;DHT22;59475;52.464;13.590;2022-10-14T05:24:31;6.28;95.36
71627;DHT22;59475;52.464;13.590;2022-10-14T05:26:57;6.31;95.33
71627;DHT22;59475;52.464;13.590;2022-10-14T05:29:22;6.31;95.41
71627;DHT22;59475;52.464;13.590;2022-10-14T05:31:47;6.33;95.41
71627;DHT22;59475;52.464;13.590;2022-10-14T05:34:13;6.42;95.42
71627;DHT22;59475;52.464;13.590;2022-10-14T05:36:38;6.54;95.39
71627;DHT22;59475;52.464;13.590;2022-10-14T05:39:06;6.54;95.42
71627;DHT22;59475;52.464;13.590;2022-10-14T05:41:32;6.52;95.46
71627;DHT22;59475;52.464;13.590;2022-10-14T05:43:57;6.55;95.51
71627;DHT22;59475;52.464;13.590;2022-10-14T05:46:22;6.56;95.60
71627;DHT22;59475;52.464;13.590;2022-10-14T05:48:48;6.68;95.64
71627;DHT22;59475;52.464;13.590;2022-10-14T05:51:13;6.76;95.50
71627;DHT22;59475;52.464;13.590;2022-10-14T05:53:39;6.78;95.50
71627;DHT22;59475;52.464;13.590;2022-10-14T05:56:07;6.81;95.46
71627;DHT22;59475;52.464;13.590;2022-10-14T05:58:33;6.82;95.42
71627;DHT22;59475;52.464;13.590;2022-10-14T06:01:04;6.83;95.47
71627;DHT22;59475;52.464;13.590;2022-10-14T06:03:30;6.91;95.60
71627;DHT22;59475;52.464;13.590;2022-10-14T06:05:55;6.97;95.54
71627;DHT22;59475;52.464;13.590;2022-10-14T06:08:21;7.02;95.48
71627;DHT22;59475;52.464;13.590;2022-10-14T06:10:47;7.13;95.59
71627;DHT22;59475;52.464;13.590;2022-10-14T06:13:12;7.20;95.69
71627;DHT22;59475;52.464;13.590;2022-10-14T06:15:38;7.30;95.96
71627;DHT22;59475;52.464;13.590;2022-10-14T06:18:03;7.38;96.00
71627;DHT22;59475;52.464;13.590;2022-10-14T06:20:29;7.44;96.05
71627;DHT22;59475;52.464;13.590;2022-10-14T06:22:54;7.48;95.83
71627;DHT22;59475;52.464;13.590;2022-10-14T06:25:19;7.58;95.84
71627;DHT22;59475;52.464;13.590;2022-10-14T06:27:45;7.64;95.74
71627;DHT22;59475;52.464;13.590;2022-10-14T06:30:10;7.68;95.73
71627;DHT22;59475;52.464;13.590;2022-10-14T06:32:36;7.78;95.81
71627;DHT22;59475;52.464;13.590;2022-10-14T06:35:01;7.85;95.81
71627;DHT22;59475;52.464;13.590;2022-10-14T06:37:27;7.97;95.88
71627;DHT22;59475;52.464;13.590;2022-10-14T06:39:52;8.07;95.86
71627;DHT22;59475;52.464;13.590;2022-10-14T06:42:18;8.16;95.90
71627;DHT22;59475;52.464;13.590;2022-10-14T06:44:43;8.20;95.82
71627;DHT22;59475;52.464;13.590;2022-10-14T06:47:09;8.30;95.76
71627;DHT22;59475;52.464;13.590;2022-10-14T06:49:35;8.34;95.70
71627;DHT22;59475;52.464;13.590;2022-10-14T06:52:00;8.44;95.74
71627;DHT22;59475;52.464;13.590;2022-10-14T06:54:25;8.53;95.78
71627;DHT22;59475;52.464;13.590;2022-10-14T06:56:51;8.64;95.89
71627;DHT22;59475;52.464;13.590;2022-10-14T06:59:16;8.78;96.12
71627;DHT22;59475;52.464;13.590;2022-10-14T07:01:41;8.92;96.40
71627;DHT22;59475;52.464;13.590;2022-10-14T07:04:06;8.99;96.20
71627;DHT22;59475;52.464;13.590;2022-10-14T07:06:32;9.03;96.19
71627;DHT22;59475;52.464;13.590;2022-10-14T07:08:57;9.10;96.22
71627;DHT22;59475;52.464;13.590;2022-10-14T07:11:23;9.20;96.40
71627;DHT22;59475;52.464;13.590;2022-10-14T07:13:48;9.34;96.37
71627;DHT22;59475;52.464;13.590;2022-10-14T07:16:13;9.43;96.33
71627;DHT22;59475;52.464;13.590;2022-10-14T07:18:38;9.50;96.02
71627;DHT22;59475;52.464;13.590;2022-10-14T07:21:05;9.62;95.90
71627;DHT22;59475;52.464;13.590;2022-10-14T07:23:31;9.75;96.06
71627;DHT22;59475;52.464;13.590;2022-10-14T07:25:57;9.85;95.90
71627;DHT22;59475;52.464;13.590;2022-10-14T07:28:23;10.01;96.34
71627;DHT22;59475;52.464;13.590;2022-10-14T07:31:03;10.23;96.19
71627;DHT22;59475;52.464;13.590;2022-10-14T07:33:28;10.37;96.00
71627;DHT22;59475;52.464;13.590;2022-10-14T07:35:54;10.49;95.71
71627;DHT22;59475;52.464;13.590;2022-10-14T07:38:20;10.56;95.47
71627;DHT22;59475;52.464;13.590;2022-10-14T07:40:57;10.68;95.64
71627;DHT22;59475;52.464;13.590;2022-10-14T07:43:23;10.81;95.20
71627;DHT22;59475;52.464;13.590;2022-10-14T07:45:48;10.88;94.51
71627;DHT22;59475;52.464;13.590;2022-10-14T07:48:15;10.96;94.75
71627;DHT22;59475;52.464;13.590;2022-10-14T07:50:40;11.09;95.07
71627;DHT22;59475;52.464;13.590;2022-10-14T07:53:06;11.23;95.29
71627;DHT22;59475;52.464;13.590;2022-10-14T07:55:31;11.33;93.15
71627;DHT22;59475;52.464;13.590;2022-10-14T07:57:56;11.36;93.09
71627;DHT22;59475;52.464;13.590;2022-10-14T08:00:22;11.44;92.63
71627;DHT22;59475;52.464;13.590;2022-10-14T08:02:47;11.44;92.69
71627;DHT22;59475;52.464;13.590;2022-10-14T08:05:13;11.42;92.62
71627;DHT22;59475;52.464;13.590;2022-10-14T08:07:38;11.57;93.75
71627;DHT22;59475;52.464;13.590;2022-10-14T08:10:04;11.67;93.90
71627;DHT22;59475;52.464;13.590;2022-10-14T08:12:29;11.84;92.71
71627;DHT22;59475;52.464;13.590;2022-10-14T08:14:55;11.92;91.87
71627;DHT22;59475;52.464;13.590;2022-10-14T08:17:21;12.14;91.57
71627;DHT22;59475;52.464;13.590;2022-10-14T08:19:49;12.24;91.49
71627;DHT22;59475;52.464;13.590;2022-10-14T08:22:18;12.36;90.93
71627;DHT22;59475;52.464;13.590;2022-10-14T08:24:44;12.42;91.25
71627;DHT22;59475;52.464;13.590;2022-10-14T08:27:10;12.53;90.66
71627;DHT22;59475;52.464;13.590;2022-10-14T08:29:35;12.71;91.11
71627;DHT22;59475;52.464;13.590;2022-10-14T08:32:01;12.92;92.00
71627;DHT22;59475;52.464;13.590;2022-10-14T08:34:26;13.08;88.90
71627;DHT22;59475;52.464;13.590;2022-10-14T08:36:52;13.28;90.08
71627;DHT22;59475;52.464;13.590;2022-10-14T08:39:18;13.49;88.05
71627;DHT22;59475;52.464;13.590;2022-10-14T08:47:11;14.17;87.96
71627;DHT22;59475;52.464;13.590;2022-10-14T08:52:13;14.94;85.89
71627;DHT22;59475;52.464;13.590;2022-10-14T08:54:43;15.48;83.76
71627;DHT22;59475;52.464;13.590;2022-10-14T08:57:32;15.97;79.91
71627;DHT22;59475;52.464;13.590;2022-10-14T08:59:59;16.42;79.61
71627;DHT22;59475;52.464;13.590;2022-10-14T09:04:59;16.84;76.29
71627;DHT22;59475;52.464;13.590;2022-10-14T09:07:26;17.24;73.45
71627;DHT22;59475;52.464;13.590;2022-10-14T09:09:55;17.65;72.97
71627;DHT22;59475;52.464;13.590;2022-10-14T09:12:29;17.86;69.43
71627;DHT22;59475;52.464;13.590;2022-10-14T09:15:06;18.09;69.80
71627;DHT22;59475;52.464;13.590;2022-10-14T09:17:40;18.68;68.69
71627;DHT22;59475;52.464;13.590;2022-10-14T09:20:21;19.03;66.13
71627;DHT22;59475;52.464;13.590;2022-10-14T09:23:00;19.06;65.96
71627;DHT22;59475;52.464;13.590;2022-10-14T09:25:27;18.58;66.46
71627;DHT22;59475;52.464;13.590;2022-10-14T09:27:53;18.41;67.14
71627;DHT22;59475;52.464;13.590;2022-10-14T09:30:19;18.36;67.89
71627;DHT22;59475;52.464;13.590;2022-10-14T09:32:50;18.23;67.88
71627;DHT22;59475;52.464;13.590;2022-10-14T09:35:32;18.03;68.20
71627;DHT22;59475;52.464;13.590;2022-10-14T09:37:58;18.10;68.56
71627;DHT22;59475;52.464;13.590;2022-10-14T09:45:56;17.28;70.04
71627;DHT22;59475;52.464;13.590;2022-10-14T09:48:32;17.16;71.19
71627;DHT22;59475;52.464;13.590;2022-10-14T09:51:00;17.31;71.26
71627;DHT22;59475;52.464;13.590;2022-10-14T09:53:32;17.62;71.48
71627;DHT22;59475;52.464;13.590;2022-10-14T09:56:04;17.68;69.19
71627;DHT22;59475;52.464;13.590;2022-10-14T09:58:48;18.16;68.30
71627;DHT22;59475;52.464;13.590;2022-10-14T10:01:22;18.58;67.09
71627;DHT22;59475;52.464;13.590;2022-10-14T10:03:50;19.06;66.11
71627;DHT22;59475;52.464;13.590;2022-10-14T10:06:21;19.22;65.11
71627;DHT22;59475;52.464;13.590;2022-10-14T10:11:42;19.19;64.22
71627;DHT22;59475;52.464;13.590;2022-10-14T10:14:31;19.26;63.90
71627;DHT22;59475;52.464;13.590;2022-10-14T10:19:34;19.13;64.10
71627;DHT22;59475;52.464;13.590;2022-10-14T10:30:25;19.22;64.72
71627;DHT22;59475;52.464;13.590;2022-10-14T10:41:21;20.00;63.23
71627;DHT22;59475;52.464;13.590;2022-10-14T10:52:55;20.64;61.27
71627;DHT22;59475;52.464;13.590;2022-10-14T10:55:40;20.46;61.62
71627;DHT22;59475;52.464;13.590;2022-10-14T11:01:03;20.18;62.08
71627;DHT22;59475;52.464;13.590;2022-10-14T11:09:15;20.10;62.53
71627;DHT22;59475;52.464;13.590;2022-10-14T11:12:56;19.98;62.60
71627;DHT22;59475;52.464;13.590;2022-10-14T11:20:22;19.41;64.48
71627;DHT22;59475;52.464;13.590;2022-10-14T11:25:58;18.75;66.52
71627;DHT22;59475;52.464;13.590;2022-10-14T11:31:31;18.94;66.79
71627;DHT22;59475;52.464;13.590;2022-10-14T11:41:47;18.69;68.02
71627;DHT22;59475;52.464;13.590;2022-10-14T11:44:37;18.71;68.10
71627;DHT22;59475;52.464;13.590;2022-10-14T11:47:09;18.54;68.53
71627;DHT22;59475;52.464;13.590;2022-10-14T11:52:28;18.30;68.81
71627;DHT22;59475;52.464;13.590;2022-10-14T11:55:03;18.27;69.55
71627;DHT22;59475;52.464;13.590;2022-10-14T11:57:40;18.09;69.72
71627;DHT22;59475;52.464;13.590;2022-10-14T12:00:12;18.06;69.96
71627;DHT22;59475;52.464;13.590;2022-10-14T12:05:42;17.71;69.60
71627;DHT22;59475;52.464;13.590;2022-10-14T12:08:22;17.79;69.92
71627;DHT22;59475;52.464;13.590;2022-10-14T12:10:59;17.82;68.99
71627;DHT22;59475;52.464;13.590;2022-10-14T12:13:50;17.90;68.44
71627;DHT22;59475;52.464;13.590;2022-10-14T12:16:18;17.93;68.19
71627;DHT22;59475;52.464;13.590;2022-10-14T12:18:47;18.07;67.34
71627;DHT22;59475;52.464;13.590;2022-10-14T12:26:46;17.92;67.59
71627;DHT22;59475;52.464;13.590;2022-10-14T12:29:16;17.85;67.86
71627;DHT22;59475;52.464;13.590;2022-10-14T12:31:49;17.89;67.99
71627;DHT22;59475;52.464;13.590;2022-10-14T12:34:22;17.71;68.01
71627;DHT22;59475;52.464;13.590;2022-10-14T12:36:50;17.57;68.82
71627;DHT22;59475;52.464;13.590;2022-10-14T12:41:49;17.45;69.41
71627;DHT22;59475;52.464;13.590;2022-10-14T12:44:18;17.45;69.09
71627;DHT22;59475;52.464;13.590;2022-10-14T12:46:46;17.41;69.56
71627;DHT22;59475;52.464;13.590;2022-10-14T12:49:26;17.42;69.78
71627;DHT22;59475;52.464;13.590;2022-10-14T12:51:58;17.47;70.05
71627;DHT22;59475;52.464;13.590;2022-10-14T12:54:26;17.40;70.29
71627;DHT22;59475;52.464;13.590;2022-10-14T12:56:55;17.38;70.32
71627;DHT22;59475;52.464;13.590;2022-10-14T12:59:29;17.48;69.60
71627;DHT22;59475;52.464;13.590;2022-10-14T13:01:58;17.49;69.62
71627;DHT22;59475;52.464;13.590;2022-10-14T13:04:24;17.61;69.93
71627;DHT22;59475;52.464;13.590;2022-10-14T13:07:25;17.72;69.61
71627;DHT22;59475;52.464;13.590;2022-10-14T13:12:54;17.69;68.97
71627;DHT22;59475;52.464;13.590;2022-10-14T13:15:35;17.72;69.31
71627;DHT22;59475;52.464;13.590;2022-10-14T13:19:03;17.83;69.04
71627;DHT22;59475;52.464;13.590;2022-10-14T13:21:09;18.04;68.94
71627;DHT22;59475;52.464;13.590;2022-10-14T13:23:49;18.37;68.00
71627;DHT22;59475;52.464;13.590;2022-10-14T13:39:52;18.18;67.30
71627;DHT22;59475;52.464;13.590;2022-10-14T13:42:25;18.17;67.85
71627;DHT22;59475;52.464;13.590;2022-10-14T13:44:55;18.13;68.04
71627;DHT22;59475;52.464;13.590;2022-10-14T13:47:22;18.09;68.39
71627;DHT22;59475;52.464;13.590;2022-10-14T13:49:48;18.02;68.32
71627;DHT22;59475;52.464;13.590;2022-10-14T13:52:23;17.95;68.74
71627;DHT22;59475;52.464;13.590;2022-10-14T13:55:08;17.95;69.17
71627;DHT22;59475;52.464;13.590;2022-10-14T13:57:36;17.96;68.66
71627;DHT22;59475;52.464;13.590;2022-10-14T14:00:03;17.87;68.75
71627;DHT22;59475;52.464;13.590;2022-10-14T14:02:45;17.86;68.57
71627;DHT22;59475;52.464;13.590;2022-10-14T14:05:15;17.83;67.93
71627;DHT22;59475;52.464;13.590;2022-10-14T14:07:42;17.82;68.19
71627;DHT22;59475;52.464;13.590;2022-10-14T14:10:09;17.81;68.37
71627;DHT22;59475;52.464;13.590;2022-10-14T14:12:35;17.72;67.86
71627;DHT22;59475;52.464;13.590;2022-10-14T14:15:02;17.62;68.26
71627;DHT22;59475;52.464;13.590;2022-10-14T14:17:29;17.59;68.11
71627;DHT22;59475;52.464;13.590;2022-10-14T14:19:57;17.45;68.26
71627;DHT22;59475;52.464;13.590;2022-10-14T14:22:27;17.34;69.07
71627;DHT22;59475;52.464;13.590;2022-10-14T14:25:09;17.26;69.46
71627;DHT22;59475;52.464;13.590;2022-10-14T14:27:35;17.26;69.20
71627;DHT22;59475;52.464;13.590;2022-10-14T14:30:19;17.14;69.93
71627;DHT22;59475;52.464;13.590;2022-10-14T14:32:46;17.06;70.09
71627;DHT22;59475;52.464;13.590;2022-10-14T14:35:12;17.03;70.18
71627;DHT22;59475;52.464;13.590;2022-10-14T14:37:41;17.00;70.84
71627;DHT22;59475;52.464;13.590;2022-10-14T14:40:24;17.03;71.08
71627;DHT22;59475;52.464;13.590;2022-10-14T14:43:03;16.99;70.98
71627;DHT22;59475;52.464;13.590;2022-10-14T14:45:32;16.97;71.03
71627;DHT22;59475;52.464;13.590;2022-10-14T14:48:06;16.99;71.26
71627;DHT22;59475;52.464;13.590;2022-10-14T14:50:39;16.96;71.51
71627;DHT22;59475;52.464;13.590;2022-10-14T14:53:17;16.93;71.58
71627;DHT22;59475;52.464;13.590;2022-10-14T14:58:37;16.89;72.48
71627;DHT22;59475;52.464;13.590;2022-10-14T15:01:05;16.84;72.17
71627;DHT22;59475;52.464;13.590;2022-10-14T15:03:33;16.80;72.48
71627;DHT22;59475;52.464;13.590;2022-10-14T15:06:02;16.80;72.59
71627;DHT22;59475;52.464;13.590;2022-10-14T15:08:33;16.87;72.85
71627;DHT22;59475;52.464;13.590;2022-10-14T15:11:00;16.89;72.86
71627;DHT22;59475;52.464;13.590;2022-10-14T15:15:51;16.90;72.73
71627;DHT22;59475;52.464;13.590;2022-10-14T15:18:21;16.86;72.49
71627;DHT22;59475;52.464;13.590;2022-10-14T15:20:49;16.84;72.86
71627;DHT22;59475;52.464;13.590;2022-10-14T15:31:35;16.45;74.15
71627;DHT22;59475;52.464;13.590;2022-10-14T15:34:01;16.35;74.06
71627;DHT22;59475;52.464;13.590;2022-10-14T15:36:30;16.25;74.71
71627;DHT22;59475;52.464;13.590;2022-10-14T15:38:55;16.11;75.15
71627;DHT22;59475;52.464;13.590;2022-10-14T15:41:23;16.00;75.47
71627;DHT22;59475;52.464;13.590;2022-10-14T15:43:48;15.90;75.91
71627;DHT22;59475;52.464;13.590;2022-10-14T15:46:13;15.79;76.39
71627;DHT22;59475;52.464;13.590;2022-10-14T15:49:01;15.67;77.06
71627;DHT22;59475;52.464;13.590;2022-10-14T15:51:28;15.53;77.52
71627;DHT22;59475;52.464;13.590;2022-10-14T15:53:57;15.42;78.07
71627;DHT22;59475;52.464;13.590;2022-10-14T15:56:23;15.31;78.74
71627;DHT22;59475;52.464;13.590;2022-10-14T15:58:48;15.23;78.85
71627;DHT22;59475;52.464;13.590;2022-10-14T16:01:16;15.08;79.62
71627;DHT22;59475;52.464;13.590;2022-10-14T16:03:45;15.00;79.87
71627;DHT22;59475;52.464;13.590;2022-10-14T16:06:11;14.90;80.25
71627;DHT22;59475;52.464;13.590;2022-10-14T16:08:37;14.83;80.66
71627;DHT22;59475;52.464;13.590;2022-10-14T16:11:02;14.72;81.15
71627;DHT22;59475;52.464;13.590;2022-10-14T16:13:28;14.63;81.27
71627;DHT22;59475;52.464;13.590;2022-10-14T16:15:57;14.56;81.99
71627;DHT22;59475;52.464;13.590;2022-10-14T16:18:23;14.48;81.79
71627;DHT22;59475;52.464;13.590;2022-10-14T16:20:50;14.41;81.86
71627;DHT22;59475;52.464;13.590;2022-10-14T16:23:17;14.28;81.93
71627;DHT22;59475;52.464;13.590;2022-10-14T16:25:46;14.18;82.41
71627;DHT22;59475;52.464;13.590;2022-10-14T16:28:14;14.07;82.68
71627;DHT22;59475;52.464;13.590;2022-10-14T16:30:41;13.93;82.56
71627;DHT22;59475;52.464;13.590;2022-10-14T16:33:13;13.81;82.65
71627;DHT22;59475;52.464;13.590;2022-10-14T16:35:39;13.69;83.33
71627;DHT22;59475;52.464;13.590;2022-10-14T16:38:05;13.62;83.48
71627;DHT22;59475;52.464;13.590;2022-10-14T16:40:30;13.49;84.21
71627;DHT22;59475;52.464;13.590;2022-10-14T16:42:55;13.39;84.89
71627;DHT22;59475;52.464;13.590;2022-10-14T16:45:21;13.29;84.91
71627;DHT22;59475;52.464;13.590;2022-10-14T16:47:46;13.22;85.19
71627;DHT22;59475;52.464;13.590;2022-10-14T16:50:12;13.14;85.36
71627;DHT22;59475;52.464;13.590;2022-10-14T16:52:37;13.05;85.27
71627;DHT22;59475;52.464;13.590;2022-10-14T16:55:27;12.95;85.54
71627;DHT22;59475;52.464;13.590;2022-10-14T16:57:52;12.88;85.71
71627;DHT22;59475;52.464;13.590;2022-10-14T17:00:17;12.83;86.14
71627;DHT22;59475;52.464;13.590;2022-10-14T17:02:43;12.80;86.27
71627;DHT22;59475;52.464;13.590;2022-10-14T17:05:09;12.76;86.59
71627;DHT22;59475;52.464;13.590;2022-10-14T17:07:35;12.76;86.79
71627;DHT22;59475;52.464;13.590;2022-10-14T17:10:01;12.68;86.97
71627;DHT22;59475;52.464;13.590;2022-10-14T17:12:27;12.67;87.27
71627;DHT22;59475;52.464;13.590;2022-10-14T17:14:52;12.64;87.39
71627;DHT22;59475;52.464;13.590;2022-10-14T17:17:17;12.65;87.76
71627;DHT22;59475;52.464;13.590;2022-10-14T17:19:43;12.63;87.74
71627;DHT22;59475;52.464;13.590;2022-10-14T17:22:09;12.60;87.75
71627;DHT22;59475;52.464;13.590;2022-10-14T17:24:34;12.53;88.58
71627;DHT22;59475;52.464;13.590;2022-10-14T17:27:00;12.49;88.77
71627;DHT22;59475;52.464;13.590;2022-10-14T17:29:28;12.45;89.08
71627;DHT22;59475;52.464;13.590;2022-10-14T17:31:53;12.42;88.93
71627;DHT22;59475;52.464;13.590;2022-10-14T17:34:20;12.39;88.93
71627;DHT22;59475;52.464;13.590;2022-10-14T17:36:45;12.39;89.61
71627;DHT22;59475;52.464;13.590;2022-10-14T17:39:11;12.46;90.11
71627;DHT22;59475;52.464;13.590;2022-10-14T17:41:38;12.53;90.11
71627;DHT22;59475;52.464;13.590;2022-10-14T17:44:03;12.52;90.16
71627;DHT22;59475;52.464;13.590;2022-10-14T17:46:29;12.50;90.00
71627;DHT22;59475;52.464;13.590;2022-10-14T17:48:58;12.53;89.92
71627;DHT22;59475;52.464;13.590;2022-10-14T17:51:25;12.56;90.15
71627;DHT22;59475;52.464;13.590;2022-10-14T17:53:55;12.59;90.46
71627;DHT22;59475;52.464;13.590;2022-10-14T17:56:22;12.60;90.61